Time;durP1;ratioP1;P1;durP2;ratioP2;P2;SDS_P1;SDS_P2;PMS_P1;PMS_P2;Temp;Humidity;BMP_temperature;BMP_pressure;BME280_temperature;BME280_humidity;BME280_pressure;Samples;Min_cycle;Max_cycle;Signal;HPM_P1;HPM_P2
2021/12/30 00:00:09;;;;;;;103.93;41.27;;;-0.50;99.90;;;;;;4881676;29;20226;-85
2021/12/30 00:02:35;;;;;;;88.03;38.63;;;;;;;;;;4881764;29;20181;-85
2021/12/30 00:05:01;;;;;;;93.03;41.77;;;;;;;;;;4865127;29;20202;-85
2021/12/30 00:07:28;;;;;;;92.23;41.27;;;;;;;;;;4880504;29;20277;-85
2021/12/30 00:09:54;;;;;;;108.90;45.40;;;;;;;;;;4865252;29;20192;-85
2021/12/30 00:12:20;;;;;;;87.80;38.60;;;;;;;;;;4880994;29;20373;-85
2021/12/30 00:14:46;;;;;;;86.20;39.10;;;;;;;;;;4882368;29;20199;-85
2021/12/30 00:17:12;;;;;;;92.90;39.57;;;;;;;;;;4881581;29;20195;-85
2021/12/30 00:19:38;;;;;;;87.00;39.17;;;;;;;;;;4864745;29;20232;-85
2021/12/30 00:22:04;;;;;;;99.83;41.93;;;-0.60;99.90;;;;;;4864632;29;20200;-86
2021/12/30 00:24:30;;;;;;;99.63;46.30;;;-0.30;99.90;;;;;;4881646;29;20253;-85
2021/12/30 00:26:55;;;;;;;90.87;42.50;;;2.10;99.90;;;;;;4888848;29;20183;-85
2021/12/30 00:29:22;;;;;;;85.83;37.27;;;;;;;;;;4886082;29;20184;-85
2021/12/30 00:31:48;;;;;;;91.93;36.80;;;;;;;;;;4884693;29;20225;-85
2021/12/30 00:34:14;;;;;;;87.07;38.10;;;;;;;;;;4870207;29;20200;-85
2021/12/30 00:36:41;;;;;;;90.67;39.47;;;;;;;;;;4880910;29;20229;-85
2021/12/30 00:39:07;;;;;;;92.20;38.77;;;;;;;;;;4904325;29;20167;-86
2021/12/30 00:41:32;;;;;;;93.57;39.10;;;-0.20;99.90;;;;;;4904587;29;20197;-84
2021/12/30 00:43:59;;;;;;;96.37;41.10;;;;;;;;;;4873472;29;20174;-85
2021/12/30 00:46:25;;;;;;;98.47;44.43;;;;;;;;;;4888264;29;20190;-86
2021/12/30 00:48:51;;;;;;;104.23;42.90;;;;;;;;;;4891670;29;20178;-86
2021/12/30 00:51:17;;;;;;;98.23;42.00;;;;;;;;;;4889234;29;20317;-85
2021/12/30 00:53:43;;;;;;;99.73;42.93;;;;;;;;;;4900751;29;20183;-84
2021/12/30 00:56:09;;;;;;;102.40;41.40;;;;;;;;;;4904347;29;20186;-86
2021/12/30 00:58:35;;;;;;;95.97;41.47;;;;;;;;;;4903539;29;20184;-84
2021/12/30 01:01:03;;;;;;;98.23;43.87;;;;;;;;;;4904026;29;20232;-84
2021/12/30 01:03:29;;;;;;;117.67;47.13;;;;;;;;;;4865734;29;20197;-85
2021/12/30 01:05:55;;;;;;;103.13;44.10;;;;;;;;;;4879444;29;20209;-86
2021/12/30 01:08:21;;;;;;;103.63;44.23;;;;;;;;;;4879347;29;20193;-86
2021/12/30 01:10:48;;;;;;;95.53;40.73;;;;;;;;;;4880949;29;20300;-85
2021/12/30 01:13:32;;;;;;;102.50;42.07;;;;;;;;;;4881227;29;20188;-85
2021/12/30 01:16:03;;;;;;;103.33;41.43;;;;;;;;;;4880554;29;20166;-86
2021/12/30 01:18:55;;;;;;;96.77;40.53;;;-0.10;99.90;;;;;;4879211;29;20174;-86
2021/12/30 01:21:25;;;;;;;103.30;43.07;;;-0.10;99.90;;;;;;4879126;29;20610;-85
2021/12/30 01:23:53;;;;;;;89.43;40.37;;;-0.10;99.90;;;;;;4879272;29;20192;-86
2021/12/30 01:26:19;;;;;;;100.83;42.60;;;;;;;;;;4880113;29;20182;-86
2021/12/30 01:28:45;;;;;;;97.63;43.10;;;;;;;;;;4863381;29;20201;-86
2021/12/30 01:31:11;;;;;;;88.90;40.97;;;;;;;;;;4879848;29;20627;-85
2021/12/30 01:33:39;;;;;;;99.63;41.27;;;;;;;;;;4879027;29;20255;-86
2021/12/30 01:36:05;;;;;;;93.47;41.43;;;;;;;;;;4880501;29;20620;-86
2021/12/30 01:38:31;;;;;;;102.70;41.77;;;;;;;;;;4878873;29;20192;-87
2021/12/30 01:41:00;;;;;;;95.47;41.87;;;;;;;;;;4878943;29;20190;-87
2021/12/30 01:43:27;;;;;;;99.83;43.77;;;;;;;;;;4878822;29;20515;-86
2021/12/30 01:45:53;;;;;;;108.93;47.00;;;;;;;;;;4878957;29;20193;-87
2021/12/30 01:48:21;;;;;;;108.33;44.70;;;;;;;;;;4878778;29;20640;-87
2021/12/30 01:50:47;;;;;;;100.53;42.80;;;;;;;;;;4878975;29;20244;-87
2021/12/30 01:53:13;;;;;;;99.47;43.93;;;;;;;;;;4878617;29;20273;-87
2021/12/30 01:55:41;;;;;;;94.93;40.80;;;0.00;99.90;;;;;;4878950;29;20194;-87
2021/12/30 01:58:09;;;;;;;107.43;41.30;;;0.10;99.90;;;;;;4880014;29;20225;-87
2021/12/30 02:00:38;;;;;;;98.77;41.33;;;0.10;99.90;;;;;;4878145;29;20289;-86
2021/12/30 02:03:05;;;;;;;109.17;43.50;;;;;;;;;;4879004;29;20195;-85
2021/12/30 02:05:32;;;;;;;109.20;45.87;;;;;;;;;;4879935;29;20182;-85
2021/12/30 02:07:58;;;;;;;95.80;42.17;;;;;;;;;;4879648;29;20710;-86
2021/12/30 02:10:24;;;;;;;100.53;42.27;;;;;;;;;;4881088;29;20277;-86
2021/12/30 02:12:50;;;;;;;107.87;44.80;;;0.10;99.90;;;;;;4882718;29;20217;-86
2021/12/30 02:15:17;;;;;;;103.17;43.77;;;0.10;99.90;;;;;;4883477;29;20186;-86
2021/12/30 02:17:45;;;;;;;100.10;44.83;;;;;;;;;;4882457;29;20226;-86
2021/12/30 02:20:32;;;;;;;97.43;41.23;;;0.40;99.90;;;;;;4867029;29;20197;-88
2021/12/30 02:22:58;;;;;;;92.83;41.87;;;;;;;;;;4882164;29;20280;-86
2021/12/30 02:25:24;;;;;;;102.97;43.87;;;;;;;;;;4882885;29;20275;-86
2021/12/30 02:27:50;;;;;;;99.63;44.60;;;;;;;;;;4866661;29;20230;-86
2021/12/30 02:30:16;;;;;;;99.40;41.53;;;;;;;;;;4883179;29;20245;-86
2021/12/30 02:32:42;;;;;;;98.60;44.63;;;;;;;;;;4881917;29;20565;-86
2021/12/30 02:35:08;;;;;;;95.97;42.87;;;0.10;99.90;;;;;;4882165;29;20254;-86
2021/12/30 02:37:35;;;;;;;108.03;46.77;;;;;;;;;;4881577;29;20190;-86
2021/12/30 02:40:01;;;;;;;104.17;42.80;;;;;;;;;;4882715;29;20268;-86
2021/12/30 02:42:27;;;;;;;98.33;43.63;;;;;;;;;;4862956;29;20209;-86
2021/12/30 02:44:53;;;;;;;98.67;43.10;;;;;;;;;;4879757;29;20194;-86
2021/12/30 02:47:19;;;;;;;100.03;42.83;;;;;;;;;;4881344;29;20212;-86
2021/12/30 02:49:45;;;;;;;85.50;41.13;;;;;;;;;;4881437;29;20198;-85
2021/12/30 02:52:12;;;;;;;94.67;42.03;;;;;;;;;;4881743;29;20210;-86
2021/12/30 02:54:42;;;;;;;91.33;42.60;;;0.00;99.90;;;;;;4881258;29;20654;-85
2021/12/30 02:57:08;;;;;;;90.67;42.00;;;;;;;;;;4863059;29;20671;-86
2021/12/30 02:59:34;;;;;;;96.20;41.47;;;;;;;;;;4865956;29;20197;-86
2021/12/30 03:02:01;;;;;;;100.60;44.27;;;;;;;;;;4882621;29;20257;-85
2021/12/30 03:04:27;;;;;;;95.03;43.80;;;;;;;;;;4882389;29;20192;-86
2021/12/30 03:06:53;;;;;;;106.20;45.53;;;0.20;99.90;;;;;;4882798;29;20237;-86
2021/12/30 03:09:19;;;;;;;89.23;39.77;;;;;;;;;;4880978;29;20194;-87
2021/12/30 03:11:45;;;;;;;102.97;43.73;;;;;;;;;;4882088;29;20228;-85
2021/12/30 03:14:11;;;;;;;98.40;43.30;;;0.20;99.90;;;;;;4881259;29;20197;-85
2021/12/30 03:16:37;;;;;;;103.10;44.13;;;;;;;;;;4882129;29;20608;-86
2021/12/30 03:19:04;;;;;;;100.73;45.00;;;0.20;99.90;;;;;;4865673;29;20215;-87
2021/12/30 03:21:31;;;;;;;96.37;42.23;;;0.20;99.90;;;;;;4880971;29;20198;-86
2021/12/30 03:24:00;;;;;;;98.57;43.60;;;0.20;99.90;;;;;;4880662;29;20197;-86
2021/12/30 03:26:26;;;;;;;104.37;43.80;;;;;;;;;;4881734;29;20189;-85
2021/12/30 03:28:52;;;;;;;101.43;44.80;;;;;;;;;;4881294;29;20273;-85
2021/12/30 03:31:20;;;;;;;105.53;46.23;;;0.30;99.90;;;;;;4881933;29;20237;-86
2021/12/30 03:33:46;;;;;;;98.40;42.90;;;0.30;99.90;;;;;;4865357;29;20201;-86
2021/12/30 03:36:13;;;;;;;95.53;44.80;;;0.30;99.90;;;;;;4880451;29;20190;-86
2021/12/30 03:38:45;;;;;;;101.00;44.57;;;0.30;99.90;;;;;;4881699;29;20182;-86
2021/12/30 03:41:13;;;;;;;99.63;42.07;;;0.30;99.90;;;;;;4881658;29;20187;-86
2021/12/30 03:43:39;;;;;;;116.33;44.40;;;;;;;;;;4881619;29;20202;-87
2021/12/30 03:46:07;;;;;;;105.57;45.07;;;0.30;99.90;;;;;;4881711;29;20178;-85
2021/12/30 03:48:34;;;;;;;104.33;45.30;;;;;;;;;;4880306;29;20334;-84
2021/12/30 03:51:09;;;;;;;105.80;44.73;;;0.40;99.90;;;;;;4877818;29;20209;-85
2021/12/30 03:53:38;;;;;;;101.63;43.63;;;0.40;99.90;;;;;;4866134;29;20188;-85
2021/12/30 03:56:09;;;;;;;103.80;45.57;;;0.50;99.90;;;;;;4881741;29;20177;-85
2021/12/30 03:58:35;;;;;;;104.20;46.13;;;0.40;99.90;;;;;;4881494;29;20193;-85
2021/12/30 04:01:02;;;;;;;116.27;46.37;;;;;;;;;;4881262;29;20774;-85
2021/12/30 04:03:28;;;;;;;97.43;44.20;;;;;;;;;;4879925;29;20605;-85
2021/12/30 04:05:54;;;;;;;102.27;45.90;;;;;;;;;;4865017;29;20281;-85
2021/12/30 04:08:20;;;;;;;117.43;48.90;;;;;;;;;;4881179;29;20290;-85
2021/12/30 04:10:46;;;;;;;106.87;49.17;;;;;;;;;;4881058;29;20230;-86
2021/12/30 04:13:12;;;;;;;118.47;50.07;;;;;;;;;;4880175;29;20194;-86
2021/12/30 04:15:38;;;;;;;111.60;48.13;;;;;;;;;;4880012;29;20190;-86
2021/12/30 04:18:04;;;;;;;116.53;48.57;;;;;;;;;;4881227;29;20182;-87
2021/12/30 04:20:30;;;;;;;116.20;50.70;;;;;;;;;;4880890;29;20598;-87
2021/12/30 04:22:56;;;;;;;115.40;50.53;;;;;;;;;;4881286;29;20182;-86
2021/12/30 04:25:22;;;;;;;120.13;51.67;;;;;;;;;;4879534;29;20196;-86
2021/12/30 04:27:48;;;;;;;114.90;48.53;;;;;;;;;;4881134;29;20182;-86
2021/12/30 04:30:15;;;;;;;156.63;61.73;;;0.50;99.90;;;;;;4864005;29;20198;-86
2021/12/30 04:32:41;;;;;;;117.93;50.27;;;;;;;;;;4880772;29;20209;-86
2021/12/30 04:35:09;;;;;;;118.67;49.63;;;0.60;99.90;;;;;;4879282;29;20195;-87
2021/12/30 04:37:35;;;;;;;129.83;53.07;;;;;;;;;;4879588;29;20636;-86
2021/12/30 04:40:04;;;;;;;261.53;106.07;;;0.60;99.90;;;;;;4879717;29;20225;-86
2021/12/30 04:42:30;;;;;;;228.37;101.93;;;;;;;;;;4880462;29;20193;-85
2021/12/30 04:44:56;;;;;;;158.77;65.17;;;;;;;;;;4879733;29;20198;-86
2021/12/30 04:47:22;;;;;;;192.70;81.80;;;;;;;;;;4880625;29;20178;-86
2021/12/30 04:49:49;;;;;;;136.33;52.43;;;;;;;;;;4879335;29;20193;-87
2021/12/30 04:52:15;;;;;;;117.90;48.47;;;;;;;;;;4879354;29;20214;-85
2021/12/30 04:54:41;;;;;;;124.93;52.27;;;;;;;;;;4863894;29;20266;-86
2021/12/30 04:57:07;;;;;;;121.20;52.30;;;;;;;;;;4863947;29;20371;-86
2021/12/30 04:59:33;;;;;;;123.40;51.10;;;;;;;;;;4879045;29;20243;-85
2021/12/30 05:01:59;;;;;;;121.87;49.63;;;0.50;99.90;;;;;;4863851;29;20186;-86
2021/12/30 05:04:25;;;;;;;130.27;50.47;;;;;;;;;;4879456;29;20182;-86
2021/12/30 05:06:51;;;;;;;133.07;50.97;;;;;;;;;;4879269;29;20276;-85
2021/12/30 05:09:17;;;;;;;126.60;51.47;;;;;;;;;;4879307;29;20190;-86
2021/12/30 05:11:43;;;;;;;152.17;57.70;;;0.60;99.90;;;;;;4878963;29;20690;-86
2021/12/30 05:14:10;;;;;;;134.67;57.30;;;0.60;99.90;;;;;;4879245;29;20281;-86
2021/12/30 05:16:36;;;;;;;141.93;59.63;;;;;;;;;;4863505;29;20186;-85
2021/12/30 05:19:03;;;;;;;135.93;57.40;;;;;;;;;;4880298;29;20185;-86
2021/12/30 05:21:29;;;;;;;163.10;67.37;;;;;;;;;;4878962;29;20190;-86
2021/12/30 05:23:55;;;;;;;134.03;53.77;;;;;;;;;;4879243;29;20197;-86
2021/12/30 05:26:25;;;;;;;152.93;62.93;;;;;;;;;;4879185;29;20189;-86
2021/12/30 05:28:51;;;;;;;138.73;56.33;;;;;;;;;;4878828;29;20548;-86
2021/12/30 05:31:17;;;;;;;155.23;58.80;;;;;;;;;;4863471;29;20249;-86
2021/12/30 05:33:43;;;;;;;129.80;52.63;;;;;;;;;;4863094;29;20667;-86
2021/12/30 05:36:08;;;;;;;158.17;60.40;;;0.80;99.90;;;;;;4878915;29;20284;-86
2021/12/30 05:38:35;;;;;;;170.57;62.20;;;;;;;;;;4847844;29;20551;-87
2021/12/30 05:41:01;;;;;;;166.23;59.90;;;;;;;;;;4879907;29;20196;-86
2021/12/30 05:43:27;;;;;;;149.77;55.43;;;;;;;;;;4878728;29;20186;-86
2021/12/30 05:45:53;;;;;;;144.90;56.77;;;;;;;;;;4879266;29;20692;-86
2021/12/30 05:48:19;;;;;;;142.23;56.13;;;;;;;;;;4878736;29;20190;-85
2021/12/30 05:50:45;;;;;;;155.10;55.70;;;;;;;;;;4879865;29;20189;-85
2021/12/30 05:53:11;;;;;;;132.03;54.63;;;;;;;;;;4878634;29;20249;-84
2021/12/30 05:55:37;;;;;;;146.10;55.63;;;;;;;;;;4879519;29;20182;-85
2021/12/30 05:58:03;;;;;;;133.87;54.33;;;;;;;;;;4878805;29;20634;-85
2021/12/30 06:00:31;;;;;;;133.43;53.17;;;0.80;99.90;;;;;;4878313;29;20229;-85
2021/12/30 06:02:57;;;;;;;133.80;53.67;;;;;;;;;;4879801;29;20182;-86
2021/12/30 06:05:23;;;;;;;124.80;51.67;;;;;;;;;;4878407;29;20186;-87
2021/12/30 06:07:49;;;;;;;134.10;54.53;;;;;;;;;;4878249;29;20284;-86
2021/12/30 06:10:15;;;;;;;125.03;51.80;;;0.70;99.90;;;;;;4879648;29;20182;-86
2021/12/30 06:12:43;;;;;;;116.60;50.07;;;;;;;;;;4878155;29;20308;-86
2021/12/30 06:15:10;;;;;;;122.20;49.73;;;0.80;99.90;;;;;;4879453;29;20193;-86
2021/12/30 06:17:37;;;;;;;137.00;53.07;;;;;;;;;;4878194;29;20209;-86
2021/12/30 06:20:08;;;;;;;129.80;53.40;;;0.90;99.90;;;;;;4878269;29;20192;-86
2021/12/30 06:22:34;;;;;;;139.33;55.30;;;;;;;;;;4877942;29;20182;-88
2021/12/30 06:25:01;;;;;;;133.47;54.77;;;;;;;;;;4879285;29;20193;-87
2021/12/30 06:27:27;;;;;;;138.23;57.30;;;;;;;;;;4878087;29;20194;-85
2021/12/30 06:29:53;;;;;;;135.50;53.63;;;;;;;;;;4877982;29;20556;-86
2021/12/30 06:32:18;;;;;;;144.23;59.03;;;0.80;99.90;;;;;;4879313;29;20212;-85
2021/12/30 06:34:44;;;;;;;154.10;60.37;;;;;;;;;;4863276;29;20198;-86
2021/12/30 06:37:11;;;;;;;155.77;62.07;;;1.00;99.90;;;;;;4878526;29;20190;-84
2021/12/30 06:39:37;;;;;;;144.33;63.77;;;;;;;;;;4862904;29;20197;-85
2021/12/30 06:42:03;;;;;;;144.77;62.33;;;1.00;99.90;;;;;;4879288;29;20332;-85
2021/12/30 06:44:29;;;;;;;144.73;61.57;;;;;;;;;;4862409;29;20190;-88
2021/12/30 06:47:01;;;;;;;139.53;58.67;;;;;;;;;;4862584;29;20281;-86
2021/12/30 06:49:34;;;;;;;147.23;58.37;;;1.00;99.90;;;;;;4881027;29;20186;-87
2021/12/30 06:52:00;;;;;;;140.07;61.23;;;;;;;;;;4856455;29;20206;-86
2021/12/30 06:54:26;;;;;;;152.50;59.50;;;;;;;;;;4876051;29;20194;-86
2021/12/30 06:56:55;;;;;;;139.17;57.33;;;1.10;99.90;;;;;;4878036;29;20350;-86
2021/12/30 06:59:21;;;;;;;137.27;56.87;;;;;;;;;;4881330;29;20190;-87
2021/12/30 07:01:47;;;;;;;137.27;58.30;;;;;;;;;;4880956;29;20293;-87
2021/12/30 07:04:13;;;;;;;127.13;57.83;;;1.20;99.90;;;;;;4881081;29;20198;-85
2021/12/30 07:06:41;;;;;;;164.53;68.33;;;;;;;;;;4881196;29;20246;-85
2021/12/30 07:09:07;;;;;;;140.90;60.27;;;;;;;;;;4882606;29;20186;-86
2021/12/30 07:11:33;;;;;;;144.67;61.27;;;;;;;;;;4882523;29;20217;-86
2021/12/30 07:13:59;;;;;;;140.97;61.37;;;;;;;;;;4881413;29;20182;-86
2021/12/30 07:16:25;;;;;;;150.70;65.60;;;;;;;;;;4866030;29;20555;-87
2021/12/30 07:18:51;;;;;;;194.50;78.63;;;;;;;;;;4881029;29;20189;-87
2021/12/30 07:21:17;;;;;;;186.63;75.03;;;;;;;;;;4887002;29;20245;-86
2021/12/30 07:23:43;;;;;;;210.37;80.23;;;;;;;;;;4889245;29;20184;-85
2021/12/30 07:26:10;;;;;;;227.20;83.63;;;1.20;99.90;;;;;;4891770;29;20191;-86
2021/12/30 07:28:38;;;;;;;262.47;92.73;;;;;;;;;;4889672;29;20198;-89
2021/12/30 07:31:04;;;;;;;228.77;82.57;;;;;;;;;;4891920;29;20202;-88
2021/12/30 07:33:30;;;;;;;351.70;117.40;;;;;;;;;;4892113;29;20182;-88
2021/12/30 07:35:56;;;;;;;296.73;101.17;;;;;;;;;;4892224;29;20208;-88
2021/12/30 07:38:23;;;;;;;144.23;65.10;;;;;;;;;;4898022;29;20197;-90
2021/12/30 07:40:49;;;;;;;189.57;79.63;;;;;;;;;;4879545;29;20197;-92
2021/12/30 07:43:15;;;;;;;129.43;56.17;;;;;;;;;;4896275;29;20190;-88
2021/12/30 07:45:41;;;;;;;130.53;59.70;;;;;;;;;;4896907;29;20203;-88
2021/12/30 07:48:07;;;;;;;135.00;56.73;;;;;;;;;;4896012;29;20179;-93
2021/12/30 07:50:33;;;;;;;145.67;67.60;;;;;;;;;;4898870;29;20221;-91
2021/12/30 07:52:59;;;;;;;139.57;60.67;;;;;;;;;;4895753;29;20217;-90
2021/12/30 07:55:25;;;;;;;119.43;54.10;;;;;;;;;;4891989;29;20250;-89
2021/12/30 07:57:55;;;;;;;129.53;57.57;;;;;;;;;;4875837;29;20198;-89
2021/12/30 08:00:27;;;;;;;114.93;54.10;;;1.60;99.90;;;;;;4871584;29;20581;-88
2021/12/30 08:02:53;;;;;;;131.53;57.13;;;;;;;;;;4859661;29;20205;-90
2021/12/30 08:05:21;;;;;;;122.80;55.33;;;1.60;99.90;;;;;;4873306;29;20683;-88
2021/12/30 08:07:48;;;;;;;132.53;55.97;;;1.60;99.90;;;;;;4874177;29;20201;-85
2021/12/30 08:10:18;;;;;;;131.43;55.57;;;1.60;99.90;;;;;;4875626;29;20651;-88
2021/12/30 08:12:46;;;;;;;116.67;52.13;;;1.60;99.90;;;;;;4877338;29;20213;-88
2021/12/30 08:15:12;;;;;;;120.50;54.83;;;1.70;99.90;;;;;;4854415;29;20652;-86
2021/12/30 08:17:40;;;;;;;119.07;53.43;;;1.70;99.90;;;;;;4873052;29;20193;-90
2021/12/30 08:20:07;;;;;;;128.23;57.70;;;1.70;99.90;;;;;;4873678;29;20369;-88
2021/12/30 08:22:34;;;;;;;139.17;58.33;;;1.90;99.90;;;;;;4871583;29;20277;-87
2021/12/30 08:25:00;;;;;;;151.17;59.07;;;;;;;;;;4876196;29;20746;-85
2021/12/30 08:27:26;;;;;;;162.50;63.73;;;;;;;;;;4875822;29;20186;-87
2021/12/30 08:29:52;;;;;;;118.03;53.93;;;;;;;;;;4870362;29;20217;-87
2021/12/30 08:32:18;;;;;;;118.37;53.33;;;;;;;;;;4872252;29;20920;-87
2021/12/30 08:34:48;;;;;;;117.07;52.50;;;1.90;99.90;;;;;;4873232;29;20203;-85
2021/12/30 08:37:16;;;;;;;114.47;53.73;;;;;;;;;;4877852;29;20257;-88
2021/12/30 08:39:42;;;;;;;117.00;54.40;;;;;;;;;;4872895;29;20273;-85
2021/12/30 08:42:37;;;;;;;115.00;53.57;;;1.90;99.90;;;;;;4876114;29;20308;-84
2021/12/30 08:45:05;;;;;;;125.23;57.70;;;2.10;99.90;;;;;;4863984;29;20215;-85
2021/12/30 08:47:31;;;;;;;118.17;54.67;;;;;;;;;;4875259;29;20199;-85
2021/12/30 08:49:58;;;;;;;114.40;53.27;;;2.20;99.90;;;;;;4857966;29;20199;-85
2021/12/30 08:52:26;;;;;;;114.80;50.87;;;2.20;99.90;;;;;;4849797;29;20570;-88
2021/12/30 08:54:52;;;;;;;112.90;54.30;;;;;;;;;;4872942;29;20196;-87
2021/12/30 08:57:20;;;;;;;117.03;54.17;;;2.40;99.90;;;;;;4851358;29;20208;-87
2021/12/30 08:59:46;;;;;;;99.43;45.90;;;;;;;;;;4869025;29;20191;-87
2021/12/30 09:02:13;;;;;;;104.63;47.77;;;2.50;99.90;;;;;;4850517;29;20717;-87
2021/12/30 09:04:45;;;;;;;95.67;44.77;;;;;;;;;;4872108;29;20285;-87
2021/12/30 09:07:11;;;;;;;98.20;46.37;;;;;;;;;;4870127;29;20186;-86
2021/12/30 09:09:37;;;;;;;75.10;35.50;;;;;;;;;;4876979;29;20667;-86
2021/12/30 09:12:03;;;;;;;95.90;45.47;;;2.70;99.90;;;;;;4867447;29;20224;-86
2021/12/30 09:14:29;;;;;;;77.50;37.27;;;;;;;;;;4853848;29;20202;-86
2021/12/30 09:16:55;;;;;;;86.03;43.00;;;;;;;;;;4856772;29;20252;-84
2021/12/30 09:19:21;;;;;;;84.93;41.50;;;;;;;;;;4872681;29;20634;-85
2021/12/30 09:21:47;;;;;;;85.27;40.63;;;;;;;;;;4865067;29;20229;-86
2021/12/30 09:24:14;;;;;;;83.57;40.77;;;;;;;;;;4875075;29;20204;-86
2021/12/30 09:26:40;;;;;;;87.60;41.23;;;;;;;;;;4869008;29;20229;-83
2021/12/30 09:29:10;;;;;;;84.73;40.47;;;;;;;;;;4864424;29;20233;-86
2021/12/30 09:31:45;;;;;;;81.77;39.27;;;2.80;99.90;;;;;;4872916;29;20218;-87
2021/12/30 09:34:12;;;;;;;82.20;41.13;;;;;;;;;;4870814;29;20672;-85
2021/12/30 09:36:38;;;;;;;80.37;39.50;;;;;;;;;;4865569;29;20247;-84
2021/12/30 09:39:10;;;;;;;84.33;40.17;;;2.70;99.90;;;;;;4873356;29;20246;-86
2021/12/30 09:41:37;;;;;;;84.87;39.97;;;2.70;99.90;;;;;;4870781;29;20192;-86
2021/12/30 09:44:08;;;;;;;84.87;39.67;;;2.90;99.90;;;;;;4871010;29;20189;-86
2021/12/30 09:46:35;;;;;;;77.40;38.10;;;;;;;;;;4870020;29;20190;-87
2021/12/30 09:49:01;;;;;;;82.10;38.53;;;;;;;;;;4867861;29;20190;-87
2021/12/30 09:51:27;;;;;;;76.57;38.63;;;;;;;;;;4874431;29;20581;-85
2021/12/30 09:53:53;;;;;;;74.97;37.30;;;;;;;;;;4870928;29;20196;-88
2021/12/30 09:56:20;;;;;;;78.50;37.50;;;;;;;;;;4872803;29;20230;-87
2021/12/30 09:58:46;;;;;;;69.17;32.77;;;;;;;;;;4878415;29;20191;-87
2021/12/30 10:01:12;;;;;;;73.93;36.33;;;;;;;;;;4866395;29;20243;-86
2021/12/30 10:03:38;;;;;;;75.83;35.67;;;;;;;;;;4874100;29;20201;-86
2021/12/30 10:06:10;;;;;;;77.10;34.97;;;2.90;99.90;;;;;;4846672;29;20196;-86
2021/12/30 10:08:41;;;;;;;72.40;36.80;;;3.00;99.90;;;;;;4870713;29;20223;-87
2021/12/30 10:11:14;;;;;;;73.57;36.10;;;3.10;99.90;;;;;;4854298;29;20217;-88
2021/12/30 10:13:51;;;;;;;69.53;34.90;;;2.80;99.90;;;;;;4872219;29;20196;-87
2021/12/30 10:16:17;;;;;;;79.90;38.03;;;;;;;;;;4869439;29;20242;-86
2021/12/30 10:18:45;;;;;;;77.87;38.33;;;3.20;99.90;;;;;;4855561;29;20277;-86
2021/12/30 10:21:44;;;;;;;79.57;36.07;;;3.10;99.90;;;;;;4868108;29;20244;-88
2021/12/30 10:24:12;;;;;;;78.97;38.10;;;3.10;99.90;;;;;;4866414;29;20202;-87
2021/12/30 10:26:51;;;;;;;84.20;38.90;;;3.30;99.90;;;;;;4872144;29;20265;-87
2021/12/30 10:29:17;;;;;;;76.50;36.50;;;;;;;;;;4873483;29;20222;-88
2021/12/30 10:31:43;;;;;;;71.60;36.27;;;;;;;;;;4872690;29;20220;-88
2021/12/30 10:34:10;;;;;;;70.03;34.97;;;;;;;;;;4879765;29;20202;-84
2021/12/30 10:36:43;;;;;;;65.27;32.73;;;3.50;99.90;;;;;;4869857;29;20218;-85
2021/12/30 10:39:27;;;;;;;72.80;34.43;;;3.80;99.90;;;;;;4877639;29;20198;-89
2021/12/30 10:42:05;;;;;;;72.13;33.87;;;3.40;99.90;;;;;;4872922;29;20226;-86
2021/12/30 10:44:55;;;;;;;75.17;33.73;;;3.40;99.90;;;;;;4876144;29;20282;-86
2021/12/30 10:47:26;;;;;;;63.13;31.30;;;3.40;99.90;;;;;;4879161;29;20192;-90
2021/12/30 10:50:12;;;;;;;74.53;35.20;;;3.40;99.90;;;;;;4872592;29;20186;-88
2021/12/30 10:52:51;;;;;;;66.57;29.63;;;3.20;99.90;;;;;;4869343;29;20205;-89
2021/12/30 10:55:17;;;;;;;142.33;55.03;;;3.50;99.90;;;;;;4871911;29;20193;-88
2021/12/30 10:57:43;;;;;;;82.33;37.63;;;;;;;;;;4878035;29;20245;-89
2021/12/30 11:00:10;;;;;;;82.30;37.83;;;3.40;99.90;;;;;;4877085;29;20240;-88
2021/12/30 11:02:37;;;;;;;80.27;38.37;;;3.60;99.90;;;;;;4877893;29;20237;-87
2021/12/30 11:05:12;;;;;;;69.80;33.40;;;3.60;99.90;;;;;;4862323;29;20191;-86
2021/12/30 11:07:38;;;;;;;66.47;33.17;;;;;;;;;;4856441;29;20192;-87
2021/12/30 11:10:04;;;;;;;59.57;30.27;;;3.70;99.90;;;;;;4868642;29;20612;-87
2021/12/30 11:12:42;;;;;;;60.17;30.53;;;3.70;99.90;;;;;;4870660;29;20221;-88
2021/12/30 11:15:23;;;;;;;56.90;29.77;;;3.60;99.90;;;;;;4875938;29;20269;-92
2021/12/30 11:17:50;;;;;;;55.40;27.70;;;3.70;99.90;;;;;;4873667;29;20202;-87
2021/12/30 11:20:19;;;;;;;55.87;27.87;;;3.80;99.90;;;;;;4874689;29;20284;-88
2021/12/30 11:22:50;;;;;;;58.60;28.23;;;3.50;99.90;;;;;;4871595;29;20204;-87
2021/12/30 11:25:18;;;;;;;62.90;29.67;;;3.70;99.90;;;;;;4879639;29;20561;-87
2021/12/30 11:27:44;;;;;;;56.53;29.50;;;;;;;;;;4854319;29;20241;-88
2021/12/30 11:30:16;;;;;;;71.17;31.47;;;3.90;99.90;;;;;;4871450;29;20671;-86
2021/12/30 11:32:47;;;;;;;58.20;28.67;;;3.80;99.90;;;;;;4876858;29;20208;-88
2021/12/30 11:35:13;;;;;;;56.30;27.00;;;;;;;;;;4874610;29;20228;-86
2021/12/30 11:37:39;;;;;;;62.83;30.40;;;3.60;99.90;;;;;;4872450;29;20211;-85
2021/12/30 11:40:09;;;;;;;45.77;24.00;;;3.80;99.90;;;;;;4874424;29;20204;-86
2021/12/30 11:42:43;;;;;;;48.33;26.30;;;3.50;99.90;;;;;;4872226;29;20204;-85
2021/12/30 11:45:29;;;;;;;52.90;26.93;;;3.70;99.90;;;;;;4874633;29;20276;-86
2021/12/30 11:48:01;;;;;;;49.20;25.07;;;3.70;99.90;;;;;;4872883;29;20193;-86
2021/12/30 11:50:26;;;;;;;53.53;26.60;;;;;;;;;;4871854;29;20185;-86
2021/12/30 11:52:53;;;;;;;47.13;25.30;;;3.60;99.90;;;;;;4873290;29;20679;-85
2021/12/30 11:55:57;;;;;;;55.23;27.67;;;3.90;99.90;;;;;;4878004;29;20216;-86
2021/12/30 11:58:36;;;;;;;51.60;23.83;;;3.70;99.90;;;;;;4870282;29;20213;-88
2021/12/30 12:01:27;;;;;;;48.43;24.07;;;3.60;99.90;;;;;;4877985;29;20232;-89
2021/12/30 12:03:53;;;;;;;58.33;27.77;;;;;;;;;;4880504;29;20759;-86
2021/12/30 12:06:28;;;;;;;63.70;28.10;;;4.20;99.90;;;;;;4869613;29;20198;-88
2021/12/30 12:09:08;;;;;;;50.87;24.87;;;3.70;99.90;;;;;;4876003;29;20651;-87
2021/12/30 12:11:40;;;;;;;44.60;22.87;;;3.40;99.90;;;;;;4874881;29;20202;-88
2021/12/30 12:14:14;;;;;;;49.23;25.17;;;3.70;99.90;;;;;;4864682;29;20285;-87
2021/12/30 12:16:48;;;;;;;49.17;23.53;;;3.40;99.90;;;;;;4872246;29;20650;-88
2021/12/30 12:19:17;;;;;;;54.03;25.17;;;3.60;99.90;;;;;;4874438;29;20198;-87
2021/12/30 12:21:49;;;;;;;45.33;23.10;;;3.60;99.90;;;;;;4873179;29;20192;-89
2021/12/30 12:24:20;;;;;;;48.43;24.17;;;3.30;99.90;;;;;;4868948;29;20190;-87
2021/12/30 12:26:46;;;;;;;48.97;23.60;;;;;;;;;;4872284;29;20669;-87
2021/12/30 12:29:24;;;;;;;59.27;25.87;;;3.10;99.90;;;;;;4874525;29;20191;-91
2021/12/30 12:31:59;;;;;;;59.40;25.20;;;3.20;99.90;;;;;;4867146;29;20214;-87
2021/12/30 12:35:05;;;;;;;49.07;25.30;;;3.70;99.90;;;;;;4857643;29;20202;-88
2021/12/30 12:37:37;;;;;;;52.40;26.83;;;;;;;;;;4841334;29;20189;-86
2021/12/30 12:40:03;;;;;;;50.90;26.63;;;;;;;;;;4871372;29;20235;-87
2021/12/30 12:42:52;;;;;;;46.87;23.63;;;3.80;99.90;;;;;;4873118;29;20196;-85
2021/12/30 12:45:19;;;;;;;48.63;23.13;;;;;;;;;;4877055;29;20194;-86
2021/12/30 12:47:45;;;;;;;46.47;24.07;;;;;;;;;;4875322;29;20219;-85
2021/12/30 12:50:11;;;;;;;42.17;21.90;;;;;;;;;;4853498;29;20222;-87
2021/12/30 12:52:41;;;;;;;39.80;21.10;;;3.90;99.90;;;;;;4877624;29;20250;-85
2021/12/30 12:55:08;;;;;;;44.67;20.67;;;;;;;;;;4874211;29;20282;-83
2021/12/30 12:57:34;;;;;;;45.60;22.10;;;;;;;;;;4874805;29;20658;-84
2021/12/30 13:00:00;;;;;;;42.87;21.03;;;;;;;;;;4871564;29;20259;-84
2021/12/30 13:02:26;;;;;;;34.63;18.50;;;;;;;;;;4876638;29;20278;-85
2021/12/30 13:04:52;;;;;;;39.77;18.27;;;;;;;;;;4874956;29;20196;-85
2021/12/30 13:07:21;;;;;;;32.03;17.40;;;3.80;99.90;;;;;;4879909;29;20258;-82
2021/12/30 13:09:49;;;;;;;37.27;18.27;;;3.60;99.90;;;;;;4873135;29;20185;-84
2021/12/30 13:12:16;;;;;;;35.37;18.53;;;;;;;;;;4874918;29;20220;-83
2021/12/30 13:14:46;;;;;;;37.30;19.33;;;3.70;99.90;;;;;;4867433;29;20192;-88
2021/12/30 13:17:13;;;;;;;35.53;18.80;;;3.70;99.90;;;;;;4867104;29;20195;-87
2021/12/30 13:19:44;;;;;;;39.60;18.90;;;3.80;99.90;;;;;;4861393;29;20204;-87
2021/12/30 13:22:13;;;;;;;39.87;19.20;;;3.60;99.90;;;;;;4878866;29;20293;-85
2021/12/30 13:24:56;;;;;;;34.70;20.80;;;3.40;99.90;;;;;;4869753;29;20194;-85
2021/12/30 13:27:39;;;;;;;46.90;22.87;;;3.50;99.90;;;;;;4879532;29;20248;-85
2021/12/30 13:30:13;;;;;;;44.17;21.13;;;3.60;99.90;;;;;;4861690;29;20174;-86
2021/12/30 13:32:43;;;;;;;32.77;17.53;;;3.50;99.90;;;;;;4874274;29;20261;-86